createdAt,value
2022-12-25T00:01:34.357Z,98890.91
2022-12-25T00:04:01.114Z,98891.53
2022-12-25T00:06:27.912Z,98883.72
2022-12-25T00:08:54.394Z,98879.53
2022-12-25T00:11:20.902Z,98882.53
2022-12-25T00:13:48.090Z,98872.47
2022-12-25T00:16:23.761Z,98867.88
2022-12-25T00:18:51.425Z,98868.47
2022-12-25T00:21:19.798Z,98865.75
2022-12-25T00:23:47.052Z,98865.75
2022-12-25T00:26:16.316Z,98861.00
2022-12-25T00:28:43.060Z,98866.69
2022-12-25T00:31:15.326Z,98869.34
2022-12-25T00:33:44.664Z,98870.53
2022-12-25T00:36:13.256Z,98873.88
2022-12-25T00:38:40.729Z,98866.44
2022-12-25T00:41:09.789Z,98873.03
2022-12-25T00:43:36.597Z,98868.03
2022-12-25T00:46:05.307Z,98875.44
2022-12-25T00:48:34.199Z,98869.16
2022-12-25T00:51:04.024Z,98865.25
2022-12-25T00:53:31.031Z,98870.63
2022-12-25T00:56:00.459Z,98869.94
2022-12-25T00:58:29.195Z,98882.81
2022-12-25T01:00:56.289Z,98884.63
2022-12-25T01:03:23.745Z,98880.16
2022-12-25T01:06:02.313Z,98881.34
2022-12-25T01:08:36.579Z,98887.34
2022-12-25T01:11:08.969Z,98889.00
2022-12-25T01:13:37.109Z,98890.16
2022-12-25T01:16:07.860Z,98890.19
2022-12-25T01:18:34.374Z,98877.41
2022-12-25T01:21:12.911Z,98884.09
2022-12-25T01:23:39.461Z,98890.56
2022-12-25T01:26:12.867Z,98884.34
2022-12-25T01:28:40.716Z,98894.56
2022-12-25T01:36:48.559Z,98894.84
2022-12-25T01:39:19.538Z,98884.41
2022-12-25T01:41:47.402Z,98877.25
2022-12-25T01:44:14.523Z,98876.53
2022-12-25T01:46:42.478Z,98877.91
2022-12-25T01:49:23.230Z,98887.59
2022-12-25T01:51:51.682Z,98892.63
2022-12-25T01:54:27.350Z,98896.47
2022-12-25T01:56:59.102Z,98888.25
2022-12-25T01:59:27.616Z,98893.88
2022-12-25T02:01:55.110Z,98900.13
2022-12-25T02:04:40.616Z,98887.50
2022-12-25T02:07:12.534Z,98884.47
2022-12-25T02:09:39.355Z,98887.66
2022-12-25T02:12:07.954Z,98888.66
2022-12-25T02:14:37.667Z,98891.09
2022-12-25T02:17:24.216Z,98902.25
2022-12-25T02:20:18.845Z,98902.09
2022-12-25T02:23:05.393Z,98898.28
2022-12-25T02:26:01.633Z,98892.84
2022-12-25T02:28:42.088Z,98890.81
2022-12-25T02:31:23.731Z,98897.47
2022-12-25T02:34:04.239Z,98894.50
2022-12-25T02:36:54.111Z,98896.53
2022-12-25T02:39:50.823Z,98894.72
2022-12-25T02:43:09.857Z,98889.91
2022-12-25T02:46:12.483Z,98894.94
2022-12-25T02:49:03.652Z,98893.56
2022-12-25T02:51:53.588Z,98899.13
2022-12-25T02:54:50.689Z,98890.31
2022-12-25T02:57:43.977Z,98883.25
2022-12-25T03:00:30.664Z,98877.63
2022-12-25T03:03:23.510Z,98876.06
2022-12-25T03:06:11.886Z,98887.13
2022-12-25T03:08:42.049Z,98892.94
2022-12-25T03:11:30.373Z,98885.75
2022-12-25T03:14:25.605Z,98873.47
2022-12-25T03:16:56.496Z,98858.47
2022-12-25T03:19:47.834Z,98862.06
2022-12-25T03:22:43.589Z,98865.84
2022-12-25T03:25:29.387Z,98870.84
2022-12-25T03:27:59.175Z,98864.28
2022-12-25T03:31:09.924Z,98859.38
2022-12-25T03:34:31.343Z,98851.19
2022-12-25T03:37:45.495Z,98854.06
2022-12-25T03:40:45.348Z,98847.06
2022-12-25T03:44:13.379Z,98830.81
2022-12-25T03:47:07.267Z,98824.44
2022-12-25T03:50:04.069Z,98832.69
2022-12-25T03:52:51.727Z,98838.50
2022-12-25T03:55:38.374Z,98830.91
2022-12-25T03:58:24.020Z,98823.56
2022-12-25T04:01:09.387Z,98829.38
2022-12-25T04:03:55.013Z,98835.63
2022-12-25T04:06:39.941Z,98829.00
2022-12-25T04:09:25.659Z,98834.22
2022-12-25T04:12:10.988Z,98844.81
2022-12-25T04:14:56.133Z,98845.25
2022-12-25T04:17:41.292Z,98849.72
2022-12-25T04:20:26.983Z,98844.13
2022-12-25T04:23:12.543Z,98846.72
2022-12-25T04:25:58.133Z,98843.75
2022-12-25T04:28:44.589Z,98855.56
2022-12-25T04:31:30.227Z,98869.19
2022-12-25T04:34:15.625Z,98871.41
2022-12-25T04:36:42.436Z,98866.22
2022-12-25T04:39:10.165Z,98868.00
2022-12-25T04:41:37.410Z,98870.66
2022-12-25T04:44:04.745Z,98873.47
2022-12-25T04:46:31.815Z,98871.25
2022-12-25T04:48:58.535Z,98882.06
2022-12-25T04:51:26.456Z,98876.44
2022-12-25T04:53:54.517Z,98885.06
2022-12-25T04:56:22.890Z,98869.03
2022-12-25T04:58:49.964Z,98875.59
2022-12-25T05:01:17.604Z,98877.78
2022-12-25T05:03:44.924Z,98868.78
2022-12-25T05:06:11.828Z,98866.63
2022-12-25T05:08:38.973Z,98862.19
2022-12-25T05:11:11.419Z,98860.78
2022-12-25T05:13:38.554Z,98852.97
2022-12-25T05:16:08.945Z,98857.41
2022-12-25T05:18:36.149Z,98852.44
2022-12-25T05:21:04.660Z,98846.28
2022-12-25T05:23:34.492Z,98840.28
2022-12-25T05:26:07.548Z,98832.06
2022-12-25T05:28:36.021Z,98833.66
2022-12-25T05:31:05.467Z,98826.47
2022-12-25T05:33:32.749Z,98826.88
2022-12-25T05:36:07.084Z,98822.47
2022-12-25T05:38:34.167Z,98826.72
2022-12-25T05:41:05.999Z,98828.50
2022-12-25T05:43:33.864Z,98827.31
2022-12-25T05:46:06.790Z,98831.94
2022-12-25T05:48:37.930Z,98825.34
2022-12-25T05:51:07.647Z,98836.72
2022-12-25T05:53:35.920Z,98827.91
2022-12-25T05:56:05.123Z,98828.53
2022-12-25T05:58:33.120Z,98836.75
2022-12-25T06:01:05.721Z,98836.31
2022-12-25T06:03:32.696Z,98831.13
2022-12-25T06:05:59.687Z,98835.13
2022-12-25T06:08:26.531Z,98842.91
2022-12-25T06:13:37.415Z,98836.31
2022-12-25T06:16:06.538Z,98838.31
2022-12-25T06:18:40.946Z,98843.53
2022-12-25T06:21:10.239Z,98841.53
2022-12-25T06:23:38.994Z,98843.50
2022-12-25T06:26:08.404Z,98844.31
2022-12-25T06:28:35.551Z,98835.94
2022-12-25T06:31:11.690Z,98839.31
2022-12-25T06:33:42.241Z,98829.13
2022-12-25T06:36:23.575Z,98830.13
2022-12-25T06:38:51.409Z,98827.53
2022-12-25T06:41:21.223Z,98836.53
2022-12-25T06:43:50.118Z,98838.13
2022-12-25T06:46:20.517Z,98855.50
2022-12-25T06:48:51.032Z,98859.31
2022-12-25T06:51:20.675Z,98860.28
2022-12-25T06:53:48.555Z,98865.69
2022-12-25T06:56:18.719Z,98853.09
2022-12-25T06:58:51.538Z,98859.50
2022-12-25T07:01:45.376Z,98851.88
2022-12-25T07:04:38.315Z,98843.31
2022-12-25T07:07:09.362Z,98849.09
2022-12-25T07:09:42.310Z,98850.69
2022-12-25T07:12:18.438Z,98853.25
2022-12-25T07:14:48.832Z,98844.88
2022-12-25T07:17:19.079Z,98847.69
2022-12-25T07:19:50.178Z,98855.25
2022-12-25T07:22:16.860Z,98858.66
2022-12-25T07:24:44.142Z,98865.88
2022-12-25T07:27:11.374Z,98863.66
2022-12-25T07:29:38.549Z,98858.25
2022-12-25T07:32:06.088Z,98862.06
2022-12-25T07:34:33.285Z,98866.06
2022-12-25T07:37:00.835Z,98864.63
2022-12-25T07:39:27.957Z,98866.63
2022-12-25T07:41:58.080Z,98854.63
2022-12-25T07:44:25.246Z,98846.25
2022-12-25T07:46:52.634Z,98836.03
2022-12-25T07:49:19.726Z,98838.84
2022-12-25T07:51:47.150Z,98827.84
2022-12-25T07:54:14.191Z,98832.66
2022-12-25T07:56:41.311Z,98824.66
2022-12-25T07:59:08.333Z,98827.28
2022-12-25T08:01:38.377Z,98827.03
2022-12-25T08:04:05.479Z,98842.41
2022-12-25T08:06:34.918Z,98843.00
2022-12-25T08:09:09.504Z,98843.78
2022-12-25T08:11:40.928Z,98846.16
2022-12-25T08:14:13.430Z,98843.00
2022-12-25T08:19:23.167Z,98841.75
2022-12-25T08:21:50.575Z,98835.00
2022-12-25T08:24:18.206Z,98818.97
2022-12-25T08:29:36.150Z,98811.72
2022-12-25T08:32:07.349Z,98809.06
2022-12-25T08:34:34.917Z,98809.25
2022-12-25T08:37:02.447Z,98819.66
2022-12-25T08:39:29.923Z,98820.19
2022-12-25T08:41:58.463Z,98819.41
2022-12-25T08:47:14.451Z,98821.88
2022-12-25T08:52:25.201Z,98822.28
2022-12-25T09:03:02.894Z,98818.09
2022-12-25T09:05:34.633Z,98827.28
2022-12-25T09:21:38.059Z,98817.13
2022-12-25T09:43:03.082Z,98824.94
2022-12-25T09:45:36.654Z,98807.31
2022-12-25T09:48:04.461Z,98807.41
2022-12-25T09:50:46.552Z,98805.50
2022-12-25T09:53:20.245Z,98793.69
2022-12-25T09:55:57.284Z,98788.25
2022-12-25T09:58:25.394Z,98775.06
2022-12-25T10:01:03.535Z,98778.59
2022-12-25T10:03:54.752Z,98764.22
2022-12-25T10:06:25.322Z,98764.75
2022-12-25T10:09:11.212Z,98757.13
2022-12-25T10:12:00.614Z,98739.56
2022-12-25T10:14:37.831Z,98720.38
2022-12-25T10:17:31.171Z,98716.19
2022-12-25T10:20:18.779Z,98689.69
2022-12-25T10:22:53.380Z,98694.03
2022-12-25T10:25:23.983Z,98704.91
2022-12-25T10:27:57.464Z,98701.19
2022-12-25T10:30:29.716Z,98705.25
2022-12-25T10:32:58.282Z,98699.47
2022-12-25T10:35:28.643Z,98689.44
2022-12-25T10:38:03.305Z,98702.50
2022-12-25T10:41:05.465Z,98727.66
2022-12-25T10:43:52.235Z,98735.03
2022-12-25T10:46:20.553Z,98736.41
2022-12-25T10:48:54.868Z,98743.91
2022-12-25T10:51:38.350Z,98747.41
2022-12-25T10:54:30.090Z,98743.75
2022-12-25T10:57:01.900Z,98740.44
2022-12-25T10:59:30.948Z,98740.88
2022-12-25T11:02:11.791Z,98737.56
2022-12-25T11:04:38.498Z,98727.91
2022-12-25T11:07:06.624Z,98722.06
2022-12-25T11:09:33.893Z,98722.66
2022-12-25T11:12:00.920Z,98724.56
2022-12-25T11:14:29.197Z,98712.34
2022-12-25T11:16:56.062Z,98699.53
2022-12-25T11:19:33.625Z,98691.72
2022-12-25T11:24:52.611Z,98677.50
2022-12-25T11:27:27.998Z,98677.53
2022-12-25T11:30:04.601Z,98684.31
2022-12-25T11:32:42.286Z,98677.94
2022-12-25T11:35:17.518Z,98671.50
2022-12-25T11:46:49.614Z,98652.63
2022-12-25T11:49:28.891Z,98649.94
2022-12-25T11:54:53.958Z,98637.06
2022-12-25T11:57:32.983Z,98639.91
2022-12-25T12:03:27.138Z,98634.19
2022-12-25T12:06:15.676Z,98618.78
2022-12-25T12:08:48.953Z,98613.25
2022-12-25T12:11:32.582Z,98598.16
2022-12-25T12:14:15.440Z,98600.78
2022-12-25T12:16:55.959Z,98596.81
2022-12-25T12:42:24.107Z,98563.38
2022-12-25T12:45:00.276Z,98568.06
2022-12-25T12:56:32.749Z,98553.31
2022-12-25T13:02:26.136Z,98544.84
2022-12-25T13:05:19.789Z,98554.09
2022-12-25T13:07:56.376Z,98564.50
2022-12-25T13:10:33.365Z,98563.56
2022-12-25T13:13:05.140Z,98558.91
2022-12-25T13:15:34.820Z,98558.47
2022-12-25T13:18:05.603Z,98558.59
2022-12-25T13:20:46.812Z,98566.69
2022-12-25T13:23:34.605Z,98560.69
2022-12-25T13:26:17.783Z,98565.56
2022-12-25T13:28:47.288Z,98547.94
2022-12-25T13:31:14.022Z,98541.84
2022-12-25T13:33:46.006Z,98532.56
2022-12-25T13:36:14.068Z,98535.97
2022-12-25T13:38:50.791Z,98531.91
2022-12-25T13:41:42.896Z,98530.88
2022-12-25T13:44:22.728Z,98520.38
2022-12-25T13:46:49.578Z,98518.69
2022-12-25T13:49:21.098Z,98504.72
2022-12-25T13:51:49.179Z,98508.53
2022-12-25T13:54:17.566Z,98516.63
2022-12-25T13:56:53.825Z,98523.53
2022-12-25T13:59:23.910Z,98530.19
2022-12-25T14:01:52.042Z,98513.50
2022-12-25T14:04:24.047Z,98520.72
2022-12-25T14:06:52.119Z,98526.38
2022-12-25T14:09:19.617Z,98519.91
2022-12-25T14:11:50.509Z,98525.63
2022-12-25T14:14:24.448Z,98526.91
2022-12-25T14:16:53.561Z,98527.13
2022-12-25T14:19:33.516Z,98542.22
2022-12-25T14:22:16.949Z,98538.81
2022-12-25T14:24:45.990Z,98533.16
2022-12-25T14:27:35.093Z,98540.53
2022-12-25T14:30:11.031Z,98546.97
2022-12-25T14:32:45.777Z,98532.59
2022-12-25T14:35:18.259Z,98533.78
2022-12-25T14:37:59.437Z,98529.41
2022-12-25T14:40:31.923Z,98528.06
2022-12-25T14:43:02.873Z,98531.25
2022-12-25T14:45:44.391Z,98524.88
2022-12-25T14:48:25.441Z,98525.94
2022-12-25T14:51:18.918Z,98523.72
2022-12-25T14:53:57.057Z,98521.47
2022-12-25T14:56:26.318Z,98513.00
2022-12-25T14:58:56.566Z,98515.38
2022-12-25T15:04:33.503Z,98503.72
2022-12-25T15:07:09.696Z,98485.78
2022-12-25T15:12:19.166Z,98487.69
2022-12-25T15:14:46.091Z,98482.38
2022-12-25T15:17:27.965Z,98497.28
2022-12-25T15:20:09.281Z,98505.84
2022-12-25T15:23:10.315Z,98512.47
2022-12-25T15:25:31.267Z,98514.59
2022-12-25T15:28:00.900Z,98506.22
2022-12-25T15:30:31.108Z,98498.81
2022-12-25T15:32:58.737Z,98498.59
2022-12-25T15:35:43.548Z,98495.66
2022-12-25T15:38:12.422Z,98492.72
2022-12-25T15:43:39.795Z,98496.75
2022-12-25T15:46:09.361Z,98496.44
2022-12-25T15:48:44.998Z,98504.03
2022-12-25T15:51:14.038Z,98503.13
2022-12-25T15:53:41.819Z,98507.34
2022-12-25T15:56:13.187Z,98507.34
2022-12-25T15:58:39.907Z,98516.47
2022-12-25T16:01:13.395Z,98508.34
2022-12-25T16:03:43.703Z,98508.28
2022-12-25T16:06:16.308Z,98518.81
2022-12-25T16:08:43.324Z,98519.44
2022-12-25T16:11:11.016Z,98512.47
2022-12-25T16:13:37.944Z,98513.75
2022-12-25T16:16:05.529Z,98508.59
2022-12-25T16:18:34.476Z,98504.41
2022-12-25T16:21:02.585Z,98508.09
2022-12-25T16:23:29.312Z,98514.34
2022-12-25T16:25:56.878Z,98513.22
2022-12-25T16:28:23.816Z,98506.53
2022-12-25T16:30:50.862Z,98496.78
2022-12-25T16:33:19.567Z,98507.47
2022-12-25T16:35:49.975Z,98496.47
2022-12-25T16:38:17.823Z,98499.50
2022-12-25T16:40:46.323Z,98495.88
2022-12-25T16:43:14.569Z,98490.00
2022-12-25T16:45:46.269Z,98496.56
2022-12-25T16:48:13.914Z,98500.44
2022-12-25T16:50:41.675Z,98503.94
2022-12-25T16:53:09.055Z,98502.59
2022-12-25T16:55:39.542Z,98484.09
2022-12-25T16:58:06.888Z,98482.38
2022-12-25T17:00:33.789Z,98483.75
2022-12-25T17:03:02.063Z,98484.53
2022-12-25T17:05:29.282Z,98493.75
2022-12-25T17:07:56.067Z,98499.66
2022-12-25T17:10:22.771Z,98502.59
2022-12-25T17:12:49.700Z,98499.66
2022-12-25T17:15:17.868Z,98503.50
2022-12-25T17:17:48.323Z,98501.38
2022-12-25T17:20:15.281Z,98489.22
2022-12-25T17:22:41.876Z,98492.75
2022-12-25T17:25:10.312Z,98485.72
2022-12-25T17:27:36.843Z,98468.25
2022-12-25T17:30:04.881Z,98484.13
2022-12-25T17:32:31.554Z,98487.19
2022-12-25T17:34:58.301Z,98477.28
2022-12-25T17:37:25.108Z,98464.56
2022-12-25T17:39:51.823Z,98468.25
2022-12-25T17:42:18.455Z,98483.78
2022-12-25T17:44:46.050Z,98488.41
2022-12-25T17:47:12.879Z,98479.44
2022-12-25T17:49:39.570Z,98473.31
2022-12-25T17:52:06.584Z,98471.16
2022-12-25T17:54:35.561Z,98483.09
2022-12-25T17:57:03.651Z,98481.41
2022-12-25T17:59:30.527Z,98470.38
2022-12-25T18:01:58.323Z,98467.66
2022-12-25T18:04:25.923Z,98464.72
2022-12-25T18:06:52.698Z,98453.94
2022-12-25T18:09:20.263Z,98458.16
2022-12-25T18:11:47.495Z,98459.84
2022-12-25T18:14:17.346Z,98453.16
2022-12-25T18:16:45.557Z,98456.56
2022-12-25T18:19:13.818Z,98448.38
2022-12-25T18:21:40.443Z,98456.31
2022-12-25T18:24:08.257Z,98457.56
2022-12-25T18:26:35.135Z,98473.00
2022-12-25T18:29:02.088Z,98473.22
2022-12-25T18:31:30.787Z,98463.91
2022-12-25T18:34:01.896Z,98462.34
2022-12-25T18:36:33.759Z,98468.13
2022-12-25T18:39:00.400Z,98466.41
2022-12-25T18:41:30.385Z,98476.88
2022-12-25T18:43:57.354Z,98474.25
2022-12-25T18:46:25.481Z,98460.97
2022-12-25T18:48:56.539Z,98460.75
2022-12-25T18:51:23.747Z,98464.06
2022-12-25T18:53:51.262Z,98467.13
2022-12-25T18:56:18.958Z,98483.34
2022-12-25T18:58:47.117Z,98487.75
2022-12-25T19:01:17.375Z,98482.66
2022-12-25T19:03:45.815Z,98480.94
2022-12-25T19:06:23.659Z,98466.09
2022-12-25T19:08:51.812Z,98462.69
2022-12-25T19:11:19.804Z,98457.81
2022-12-25T19:13:47.136Z,98461.31
2022-12-25T19:16:14.944Z,98458.59
2022-12-25T19:18:42.590Z,98458.72
2022-12-25T19:21:09.585Z,98452.56
2022-12-25T19:23:38.149Z,98446.81
2022-12-25T19:26:06.347Z,98448.16
2022-12-25T19:28:32.999Z,98440.47
2022-12-25T19:31:00.845Z,98427.63
2022-12-25T19:33:27.941Z,98429.91
2022-12-25T19:36:01.119Z,98430.56
2022-12-25T19:38:31.577Z,98439.06
2022-12-25T19:41:01.918Z,98432.72
2022-12-25T19:43:36.888Z,98432.72
2022-12-25T19:46:05.728Z,98443.63
2022-12-25T19:48:34.082Z,98439.06
2022-12-25T19:51:01.316Z,98441.56
2022-12-25T19:53:29.903Z,98455.84
2022-12-25T19:56:02.462Z,98471.72
2022-12-25T19:58:30.090Z,98479.19
2022-12-25T20:01:01.287Z,98475.44
2022-12-25T20:03:28.362Z,98481.59
2022-12-25T20:05:56.728Z,98478.41
2022-12-25T20:08:23.450Z,98482.47
2022-12-25T20:10:50.307Z,98487.91
2022-12-25T20:13:18.033Z,98498.56
2022-12-25T20:15:44.758Z,98504.66
2022-12-25T20:18:11.557Z,98504.97
2022-12-25T20:20:38.232Z,98507.00
2022-12-25T20:23:04.966Z,98500.38
2022-12-25T20:25:32.130Z,98504.53
2022-12-25T20:27:59.083Z,98509.22
2022-12-25T20:30:28.527Z,98513.88
2022-12-25T20:32:55.474Z,98507.41
2022-12-25T20:35:25.128Z,98508.22
2022-12-25T20:37:52.251Z,98514.22
2022-12-25T20:40:19.242Z,98519.44
2022-12-25T20:42:45.865Z,98518.84
2022-12-25T20:45:12.541Z,98515.69
2022-12-25T20:47:39.424Z,98517.72
2022-12-25T20:50:13.155Z,98518.50
2022-12-25T20:52:42.915Z,98518.03
2022-12-25T20:55:09.830Z,98518.97
2022-12-25T20:57:37.593Z,98519.78
2022-12-25T21:00:05.331Z,98515.22
2022-12-25T21:02:36.488Z,98514.88
2022-12-25T21:07:51.250Z,98512.69
2022-12-25T21:10:18.044Z,98509.19
2022-12-25T21:12:44.836Z,98507.81
2022-12-25T21:15:15.760Z,98504.16
2022-12-25T21:17:46.387Z,98505.81
2022-12-25T21:20:14.342Z,98506.75
2022-12-25T21:22:51.348Z,98508.78
2022-12-25T21:25:20.733Z,98524.06
2022-12-25T21:27:50.502Z,98515.66
2022-12-25T21:30:21.383Z,98509.88
2022-12-25T21:33:07.555Z,98501.59
2022-12-25T21:35:39.818Z,98497.59
2022-12-25T21:40:50.635Z,98501.25
2022-12-25T21:46:25.090Z,98504.19
2022-12-25T21:48:52.456Z,98490.16
2022-12-25T21:51:41.386Z,98493.31
2022-12-25T21:54:12.212Z,98486.97
2022-12-25T21:56:44.577Z,98486.69
2022-12-25T21:59:15.577Z,98493.94
2022-12-25T22:01:43.505Z,98507.59
2022-12-25T22:04:11.711Z,98503.09
2022-12-25T22:07:00.507Z,98506.31
2022-12-25T22:09:29.027Z,98522.94
2022-12-25T22:12:15.004Z,98523.75
2022-12-25T22:14:54.997Z,98527.00
2022-12-25T22:17:46.592Z,98532.41
2022-12-25T22:20:28.298Z,98527.78
2022-12-25T22:22:58.232Z,98529.81
2022-12-25T22:25:26.295Z,98530.47
2022-12-25T22:27:56.659Z,98536.75
2022-12-25T22:30:26.745Z,98544.94
2022-12-25T22:32:54.460Z,98536.47
2022-12-25T22:35:25.185Z,98536.41
2022-12-25T22:37:53.618Z,98550.00
2022-12-25T22:40:24.233Z,98552.59
2022-12-25T22:42:56.384Z,98560.84
2022-12-25T22:45:29.574Z,98568.22
2022-12-25T22:47:56.513Z,98573.44
2022-12-25T22:50:23.803Z,98572.22
2022-12-25T22:52:56.295Z,98565.88
2022-12-25T22:55:23.237Z,98570.91
2022-12-25T22:57:50.070Z,98568.88
2022-12-25T23:00:16.945Z,98565.78
2022-12-25T23:02:44.116Z,98560.00
2022-12-25T23:05:11.349Z,98550.94
2022-12-25T23:07:38.198Z,98555.00
2022-12-25T23:10:06.743Z,98555.00
2022-12-25T23:12:52.394Z,98554.91
2022-12-25T23:15:35.519Z,98561.97
2022-12-25T23:18:31.497Z,98569.78
2022-12-25T23:21:23.084Z,98566.88
2022-12-25T23:27:23.202Z,98565.47
2022-12-25T23:30:03.787Z,98556.94
2022-12-25T23:32:30.823Z,98563.00
2022-12-25T23:34:59.021Z,98565.75
2022-12-25T23:37:26.090Z,98561.22
2022-12-25T23:39:54.488Z,98568.97
2022-12-25T23:42:27.976Z,98572.06
2022-12-25T23:44:54.980Z,98578.03
2022-12-25T23:47:21.894Z,98581.03
2022-12-25T23:49:48.749Z,98582.59
2022-12-25T23:52:18.417Z,98589.06
2022-12-25T23:54:52.765Z,98603.19
2022-12-25T23:57:19.375Z,98596.81
2022-12-25T23:59:46.577Z,98601.25
